Capetan Vassilis — C6S2085 — position and weather

sailwx.info

Track history (hours):
 
Tides and Currents Weather Stations Pressure Air Temp Water Temp Dewpoint Dewpoint Depression Visibility Wind Speed Wind Dir Waves Ship Positions

Capetan Vassilis

Last reported at 2016-Feb-05 19:14 UTC. Time now 2016-Feb-10 08:45 UTC.
Position N 32°54' E 034°54'.

Length 191 m; draft 11.7 m.

MMSI: 311552000.

Date/timePositionNaut miles runAvg speedWind from/ knotsBaromVisibWave heightAir tempDewpointWater temp
2016-Feb-05 19:14N 32°54' E 034°54'811.5
2016-Feb-05 18:34N 32°55' E 034°45'27 5.0
2016-Feb-05 13:06N 32°58' E 034°13'1 0.9
2016-Feb-05 12:33N 32°58' E 034°12'42710.9
2016-Feb-03 21:21N 36°34' E 026°44'1010.8
2016-Feb-03 20:28N 36°40' E 026°35'1110.5
2016-Feb-03 19:25N 36°48' E 026°25'1511.4
2016-Feb-03 18:04N 36°59' E 026°12'1011.3
2016-Feb-03 17:13N 37°08' E 026°06'811.2
2016-Feb-03 16:32N 37°15' E 026°02'1110.9
2016-Feb-03 15:32N 37°24' E 025°56'1010.4
2016-Feb-03 14:33N 37°34' E 025°51'12210.9
2016-Feb-03 03:24N 39°36' E 025°48'1111.4
2016-Feb-03 02:27N 39°47' E 025°49'  
2016-Jan-31 18:16N 43°43' E 028°49'811.7
2016-Jan-31 17:33N 43°51' E 028°49'1111.1
2016-Jan-31 16:33N 44°02' E 028°45'6 5.7
2016-Jan-31 15:33N 44°06' E 028°40'0 0.1
2016-Jan-31 14:30N 44°06' E 028°40'0 0.0
2016-Jan-31 13:33N 44°06' E 028°40'0 0.0
2016-Jan-31 12:33N 44°06' E 028°40'0 0.0
2016-Jan-31 11:33N 44°06' E 028°40'0 0.0
2016-Jan-31 10:33N 44°06' E 028°40'0 0.0
2016-Jan-31 09:33N 44°06' E 028°40'0 0.0
2016-Jan-31 08:33N 44°06' E 028°40'0 0.0
2016-Jan-31 07:33N 44°06' E 028°40'0 0.0
2016-Jan-31 06:24N 44°06' E 028°40'0 0.0
2016-Jan-31 05:24N 44°06' E 028°40'0 0.0
2016-Jan-31 04:24N 44°06' E 028°40'0 0.0
2016-Jan-31 03:27N 44°06' E 028°40'0 0.0
2016-Jan-31 02:24N 44°06' E 028°40'0 0.0
2016-Jan-31 01:24N 44°06' E 028°40'0 0.0
2016-Jan-31 00:27N 44°06' E 028°40'0 0.0
2016-Jan-30 23:27N 44°06' E 028°40'0 0.0
2016-Jan-30 22:30N 44°06' E 028°40'0 0.0
2016-Jan-30 21:30N 44°06' E 028°40'0 0.0
2016-Jan-30 20:30N 44°06' E 028°40'0 0.0
2016-Jan-30 19:30N 44°06' E 028°40'0 0.0
2016-Jan-30 18:27N 44°06' E 028°40'0 0.0
2016-Jan-30 17:33N 44°06' E 028°40'0 0.0
2016-Jan-30 16:33N 44°06' E 028°40'0 0.0
2016-Jan-30 15:33N 44°06' E 028°40'0 0.0
2016-Jan-30 14:33N 44°06' E 028°40'0 0.0
2016-Jan-30 13:33N 44°06' E 028°40'0 0.0
2016-Jan-30 12:33N 44°06' E 028°40'0 0.0
2016-Jan-30 11:33N 44°06' E 028°40'0 0.0
2016-Jan-30 10:33N 44°06' E 028°40'0 0.0
2016-Jan-30 09:33N 44°06' E 028°40'0 0.0
2016-Jan-30 08:33N 44°06' E 028°40'0 0.0
2016-Jan-30 07:33N 44°06' E 028°40'0 0.0
2016-Jan-30 06:33N 44°06' E 028°40'0 0.0
2016-Jan-30 05:32N 44°06' E 028°40'0 0.0
2016-Jan-30 04:23N 44°06' E 028°40'0 0.0
2016-Jan-30 03:23N 44°06' E 028°40'0 0.0
2016-Jan-30 02:26N 44°06' E 028°40'0 0.0
2016-Jan-30 01:26N 44°06' E 028°40'0 0.0
2016-Jan-30 00:26N 44°06' E 028°40'0 0.0
2016-Jan-29 23:26N 44°06' E 028°40'0 0.0
2016-Jan-29 22:26N 44°06' E 028°40'0 0.0
2016-Jan-29 21:29N 44°06' E 028°40'0 0.0
2016-Jan-29 20:29N 44°06' E 028°40'0 0.0
2016-Jan-29 19:29N 44°06' E 028°40'0 0.0
2016-Jan-29 18:29N 44°06' E 028°40'0 0.4
2016-Jan-29 17:29N 44°06' E 028°41'3 2.5
2016-Jan-29 16:07N 44°10' E 028°39'0 0.1
2016-Jan-29 15:22N 44°10' E 028°39'0 0.0
2016-Jan-29 14:22N 44°10' E 028°39'0 0.0
2016-Jan-29 13:25N 44°10' E 028°39'0 0.0
2016-Jan-29 12:25N 44°10' E 028°39'0 0.0
2016-Jan-29 11:25N 44°10' E 028°39'0 0.0
2016-Jan-29 10:25N 44°10' E 028°39'0 0.0
2016-Jan-29 09:25N 44°10' E 028°39'0 0.0
2016-Jan-29 08:28N 44°10' E 028°39'0 0.0
2016-Jan-29 07:28N 44°10' E 028°39'0 0.0
2016-Jan-29 06:27N 44°10' E 028°39'0 0.0
2016-Jan-29 05:27N 44°10' E 028°39'0 0.0
2016-Jan-29 04:27N 44°10' E 028°39'0 0.0
2016-Jan-29 03:30N 44°10' E 028°39'0 0.0
2016-Jan-29 02:30N 44°10' E 028°39'0 0.0
2016-Jan-29 01:30N 44°10' E 028°39'0 0.0
2016-Jan-29 00:27N 44°10' E 028°39'0 0.0
2016-Jan-28 23:30N 44°10' E 028°39'0 0.0
2016-Jan-28 22:33N 44°10' E 028°39'0 0.0
2016-Jan-28 21:33N 44°10' E 028°39'0 0.0
2016-Jan-28 20:33N 44°10' E 028°39'0 0.0
2016-Jan-28 19:33N 44°10' E 028°39'0 0.0
2016-Jan-28 18:33N 44°10' E 028°39'0 0.0
2016-Jan-28 17:33N 44°10' E 028°39'0 0.0
2016-Jan-28 16:33N 44°10' E 028°39'0 0.0
2016-Jan-28 15:33N 44°10' E 028°39'0 0.0
2016-Jan-28 14:33N 44°10' E 028°39'0 0.0
2016-Jan-28 13:33N 44°10' E 028°39'0 0.0
2016-Jan-28 12:33N 44°10' E 028°39'0 0.0
2016-Jan-28 11:33N 44°10' E 028°39'0 0.0
2016-Jan-28 10:33N 44°10' E 028°39'0 0.0
2016-Jan-28 09:24N 44°10' E 028°39'0 0.0
2016-Jan-28 08:24N 44°10' E 028°39'0 0.0
2016-Jan-28 07:27N 44°10' E 028°39'0 0.0
2016-Jan-28 06:27N 44°10' E 028°39'0 0.0
2016-Jan-28 05:27N 44°10' E 028°39'0 0.0
2016-Jan-28 04:27N 44°10' E 028°39'0 0.0
2016-Jan-28 03:24N 44°10' E 028°39'0 0.0
2016-Jan-28 02:27N 44°10' E 028°39'0 0.0
2016-Jan-28 01:30N 44°10' E 028°39'0 0.0
2016-Jan-28 00:30N 44°10' E 028°39'0 0.0
2016-Jan-27 23:30N 44°10' E 028°39'0 0.0
2016-Jan-27 22:30N 44°10' E 028°39'0 0.0
2016-Jan-27 21:30N 44°10' E 028°39'0 0.0
2016-Jan-27 20:33N 44°10' E 028°39'0 0.0
2016-Jan-27 19:32N 44°10' E 028°39'0 0.0
2016-Jan-27 18:32N 44°10' E 028°39'0 0.0
2016-Jan-27 17:32N 44°10' E 028°39'0 0.0
2016-Jan-27 16:32N 44°10' E 028°39'0 0.0
2016-Jan-27 15:32N 44°10' E 028°39'0 0.0
2016-Jan-27 14:32N 44°10' E 028°39'0 0.0
2016-Jan-27 13:32N 44°10' E 028°39'0 0.0
2016-Jan-27 12:32N 44°10' E 028°39'0 0.0
2016-Jan-27 11:32N 44°10' E 028°39'0 0.0
2016-Jan-27 10:32N 44°10' E 028°39'0 0.0
2016-Jan-27 09:32N 44°10' E 028°39'0 0.0
2016-Jan-27 08:23N 44°10' E 028°39'0 0.0
2016-Jan-27 07:23N 44°10' E 028°39'0 0.0
2016-Jan-27 06:23N 44°10' E 028°39'0 0.0
2016-Jan-27 05:26N 44°10' E 028°39'0 0.0
2016-Jan-27 04:26N 44°10' E 028°39'0 0.0
2016-Jan-27 03:26N 44°10' E 028°39'0 0.0
2016-Jan-27 02:26N 44°10' E 028°39'0 0.0
2016-Jan-27 01:26N 44°10' E 028°39'0 0.0
2016-Jan-27 00:29N 44°10' E 028°39'0 0.0
2016-Jan-26 23:29N 44°10' E 028°39'0 0.0
2016-Jan-26 22:29N 44°10' E 028°39'0 0.0
2016-Jan-26 21:29N 44°10' E 028°39'0 0.0
2016-Jan-26 20:29N 44°10' E 028°39'0 0.0
2016-Jan-26 19:29N 44°10' E 028°39'  
Track history (hours):
 
Tides and Currents Weather Stations Pressure Air Temp Water Temp Dewpoint Dewpoint Depression Visibility Wind Speed Wind Dir Waves Ship Positions

Capetan Vassilis

Last reported at 2016-Feb-05 19:14 UTC. Time now 2016-Feb-10 08:45 UTC.
Position N 32°54' E 034°54'.

Length 191 m; draft 11.7 m.

MMSI: 311552000.

Date/timePositionNaut miles runAvg speedWind from/ knotsBaromVisibWave heightAir tempDewpointWater temp
2016-Feb-05 19:14N 32°54' E 034°54'811.5
2016-Feb-05 18:34N 32°55' E 034°45'27 5.0
2016-Feb-05 13:06N 32°58' E 034°13'1 0.9
2016-Feb-05 12:33N 32°58' E 034°12'42710.9
2016-Feb-03 21:21N 36°34' E 026°44'1010.8
2016-Feb-03 20:28N 36°40' E 026°35'1110.5
2016-Feb-03 19:25N 36°48' E 026°25'1511.4
2016-Feb-03 18:04N 36°59' E 026°12'1011.3
2016-Feb-03 17:13N 37°08' E 026°06'811.2
2016-Feb-03 16:32N 37°15' E 026°02'1110.9
2016-Feb-03 15:32N 37°24' E 025°56'1010.4
2016-Feb-03 14:33N 37°34' E 025°51'12210.9
2016-Feb-03 03:24N 39°36' E 025°48'1111.4
2016-Feb-03 02:27N 39°47' E 025°49'  
2016-Jan-31 18:16N 43°43' E 028°49'811.7
2016-Jan-31 17:33N 43°51' E 028°49'1111.1
2016-Jan-31 16:33N 44°02' E 028°45'6 5.7
2016-Jan-31 15:33N 44°06' E 028°40'0 0.1
2016-Jan-31 14:30N 44°06' E 028°40'0 0.0
2016-Jan-31 13:33N 44°06' E 028°40'0 0.0
2016-Jan-31 12:33N 44°06' E 028°40'0 0.0
2016-Jan-31 11:33N 44°06' E 028°40'0 0.0
2016-Jan-31 10:33N 44°06' E 028°40'0 0.0
2016-Jan-31 09:33N 44°06' E 028°40'0 0.0
2016-Jan-31 08:33N 44°06' E 028°40'0 0.0
2016-Jan-31 07:33N 44°06' E 028°40'0 0.0
2016-Jan-31 06:24N 44°06' E 028°40'0 0.0
2016-Jan-31 05:24N 44°06' E 028°40'0 0.0
2016-Jan-31 04:24N 44°06' E 028°40'0 0.0
2016-Jan-31 03:27N 44°06' E 028°40'0 0.0
2016-Jan-31 02:24N 44°06' E 028°40'0 0.0
2016-Jan-31 01:24N 44°06' E 028°40'0 0.0
2016-Jan-31 00:27N 44°06' E 028°40'0 0.0
2016-Jan-30 23:27N 44°06' E 028°40'0 0.0
2016-Jan-30 22:30N 44°06' E 028°40'0 0.0
2016-Jan-30 21:30N 44°06' E 028°40'0 0.0
2016-Jan-30 20:30N 44°06' E 028°40'0 0.0
2016-Jan-30 19:30N 44°06' E 028°40'0 0.0
2016-Jan-30 18:27N 44°06' E 028°40'0 0.0
2016-Jan-30 17:33N 44°06' E 028°40'0 0.0
2016-Jan-30 16:33N 44°06' E 028°40'0 0.0
2016-Jan-30 15:33N 44°06' E 028°40'0 0.0
2016-Jan-30 14:33N 44°06' E 028°40'0 0.0
2016-Jan-30 13:33N 44°06' E 028°40'0 0.0
2016-Jan-30 12:33N 44°06' E 028°40'0 0.0
2016-Jan-30 11:33N 44°06' E 028°40'0 0.0
2016-Jan-30 10:33N 44°06' E 028°40'0 0.0
2016-Jan-30 09:33N 44°06' E 028°40'0 0.0
2016-Jan-30 08:33N 44°06' E 028°40'0 0.0
2016-Jan-30 07:33N 44°06' E 028°40'0 0.0
2016-Jan-30 06:33N 44°06' E 028°40'0 0.0
2016-Jan-30 05:32N 44°06' E 028°40'0 0.0
2016-Jan-30 04:23N 44°06' E 028°40'0 0.0
2016-Jan-30 03:23N 44°06' E 028°40'0 0.0
2016-Jan-30 02:26N 44°06' E 028°40'0 0.0
2016-Jan-30 01:26N 44°06' E 028°40'0 0.0
2016-Jan-30 00:26N 44°06' E 028°40'0 0.0
2016-Jan-29 23:26N 44°06' E 028°40'0 0.0
2016-Jan-29 22:26N 44°06' E 028°40'0 0.0
2016-Jan-29 21:29N 44°06' E 028°40'0 0.0
2016-Jan-29 20:29N 44°06' E 028°40'0 0.0
2016-Jan-29 19:29N 44°06' E 028°40'0 0.0
2016-Jan-29 18:29N 44°06' E 028°40'0 0.4
2016-Jan-29 17:29N 44°06' E 028°41'3 2.5
2016-Jan-29 16:07N 44°10' E 028°39'0 0.1
2016-Jan-29 15:22N 44°10' E 028°39'0 0.0
2016-Jan-29 14:22N 44°10' E 028°39'0 0.0
2016-Jan-29 13:25N 44°10' E 028°39'0 0.0
2016-Jan-29 12:25N 44°10' E 028°39'0 0.0
2016-Jan-29 11:25N 44°10' E 028°39'0 0.0
2016-Jan-29 10:25N 44°10' E 028°39'0 0.0
2016-Jan-29 09:25N 44°10' E 028°39'0 0.0
2016-Jan-29 08:28N 44°10' E 028°39'0 0.0
2016-Jan-29 07:28N 44°10' E 028°39'0 0.0
2016-Jan-29 06:27N 44°10' E 028°39'0 0.0
2016-Jan-29 05:27N 44°10' E 028°39'0 0.0
2016-Jan-29 04:27N 44°10' E 028°39'0 0.0
2016-Jan-29 03:30N 44°10' E 028°39'0 0.0
2016-Jan-29 02:30N 44°10' E 028°39'0 0.0
2016-Jan-29 01:30N 44°10' E 028°39'0 0.0
2016-Jan-29 00:27N 44°10' E 028°39'0 0.0
2016-Jan-28 23:30N 44°10' E 028°39'0 0.0
2016-Jan-28 22:33N 44°10' E 028°39'0 0.0
2016-Jan-28 21:33N 44°10' E 028°39'0 0.0
2016-Jan-28 20:33N 44°10' E 028°39'0 0.0
2016-Jan-28 19:33N 44°10' E 028°39'0 0.0
2016-Jan-28 18:33N 44°10' E 028°39'0 0.0
2016-Jan-28 17:33N 44°10' E 028°39'0 0.0
2016-Jan-28 16:33N 44°10' E 028°39'0 0.0
2016-Jan-28 15:33N 44°10' E 028°39'0 0.0
2016-Jan-28 14:33N 44°10' E 028°39'0 0.0
2016-Jan-28 13:33N 44°10' E 028°39'0 0.0
2016-Jan-28 12:33N 44°10' E 028°39'0 0.0
2016-Jan-28 11:33N 44°10' E 028°39'0 0.0
2016-Jan-28 10:33N 44°10' E 028°39'0 0.0
2016-Jan-28 09:24N 44°10' E 028°39'0 0.0
2016-Jan-28 08:24N 44°10' E 028°39'0 0.0
2016-Jan-28 07:27N 44°10' E 028°39'0 0.0
2016-Jan-28 06:27N 44°10' E 028°39'0 0.0
2016-Jan-28 05:27N 44°10' E 028°39'0 0.0
2016-Jan-28 04:27N 44°10' E 028°39'0 0.0
2016-Jan-28 03:24N 44°10' E 028°39'0 0.0
2016-Jan-28 02:27N 44°10' E 028°39'0 0.0
2016-Jan-28 01:30N 44°10' E 028°39'0 0.0
2016-Jan-28 00:30N 44°10' E 028°39'0 0.0
2016-Jan-27 23:30N 44°10' E 028°39'0 0.0
2016-Jan-27 22:30N 44°10' E 028°39'0 0.0
2016-Jan-27 21:30N 44°10' E 028°39'0 0.0
2016-Jan-27 20:33N 44°10' E 028°39'0 0.0
2016-Jan-27 19:32N 44°10' E 028°39'0 0.0
2016-Jan-27 18:32N 44°10' E 028°39'0 0.0
2016-Jan-27 17:32N 44°10' E 028°39'0 0.0
2016-Jan-27 16:32N 44°10' E 028°39'0 0.0
2016-Jan-27 15:32N 44°10' E 028°39'0 0.0
2016-Jan-27 14:32N 44°10' E 028°39'0 0.0
2016-Jan-27 13:32N 44°10' E 028°39'0 0.0
2016-Jan-27 12:32N 44°10' E 028°39'0 0.0
2016-Jan-27 11:32N 44°10' E 028°39'0 0.0
2016-Jan-27 10:32N 44°10' E 028°39'0 0.0
2016-Jan-27 09:32N 44°10' E 028°39'0 0.0
2016-Jan-27 08:23N 44°10' E 028°39'0 0.0
2016-Jan-27 07:23N 44°10' E 028°39'0 0.0
2016-Jan-27 06:23N 44°10' E 028°39'0 0.0
2016-Jan-27 05:26N 44°10' E 028°39'0 0.0
2016-Jan-27 04:26N 44°10' E 028°39'0 0.0
2016-Jan-27 03:26N 44°10' E 028°39'0 0.0
2016-Jan-27 02:26N 44°10' E 028°39'0 0.0
2016-Jan-27 01:26N 44°10' E 028°39'0 0.0
2016-Jan-27 00:29N 44°10' E 028°39'0 0.0
2016-Jan-26 23:29N 44°10' E 028°39'0 0.0
2016-Jan-26 22:29N 44°10' E 028°39'0 0.0
2016-Jan-26 21:29N 44°10' E 028°39'0 0.0
2016-Jan-26 20:29N 44°10' E 028°39'0 0.0
2016-Jan-26 19:29N 44°10' E 028°39'  

Dump ship's entire track history